sensor_id;sensor_type;location;lat;lon;timestamp;temperature;humidity
2453;DHT22;63678;47.994;7.854;2022-11-20T00:04:41;7.90;99.90
2453;DHT22;63678;47.994;7.854;2022-11-20T00:07:13;7.80;99.90
2453;DHT22;63678;47.994;7.854;2022-11-20T00:09:46;7.80;99.90
2453;DHT22;63678;47.994;7.854;2022-11-20T00:12:18;7.80;99.90
2453;DHT22;63678;47.994;7.854;2022-11-20T00:17:23;7.80;99.90
2453;DHT22;63678;47.994;7.854;2022-11-20T00:19:55;7.80;99.90
2453;DHT22;63678;47.994;7.854;2022-11-20T00:25:00;7.80;99.90
2453;DHT22;63678;47.994;7.854;2022-11-20T00:30:05;7.70;99.90
2453;DHT22;63678;47.994;7.854;2022-11-20T00:32:43;7.70;99.90
2453;DHT22;63678;47.994;7.854;2022-11-20T00:35:15;7.80;99.90
2453;DHT22;63678;47.994;7.854;2022-11-20T00:37:48;7.80;99.90
2453;DHT22;63678;47.994;7.854;2022-11-20T00:40:20;7.70;99.90
2453;DHT22;63678;47.994;7.854;2022-11-20T00:42:52;7.70;99.90
2453;DHT22;63678;47.994;7.854;2022-11-20T00:55:35;7.60;99.90
2453;DHT22;63678;47.994;7.854;2022-11-20T00:58:08;7.60;99.90
2453;DHT22;63678;47.994;7.854;2022-11-20T01:00:45;7.60;99.90
2453;DHT22;63678;47.994;7.854;2022-11-20T01:03:18;7.60;99.90
2453;DHT22;63678;47.994;7.854;2022-11-20T01:06:06;7.60;99.90
2453;DHT22;63678;47.994;7.854;2022-11-20T01:08:44;7.60;99.90
2453;DHT22;63678;47.994;7.854;2022-11-20T01:11:23;7.70;99.90
2453;DHT22;63678;47.994;7.854;2022-11-20T01:13:58;7.60;99.90
2453;DHT22;63678;47.994;7.854;2022-11-20T01:16:34;7.60;99.90
2453;DHT22;63678;47.994;7.854;2022-11-20T01:19:11;7.60;99.90
2453;DHT22;63678;47.994;7.854;2022-11-20T01:21:51;7.70;99.90
2453;DHT22;63678;47.994;7.854;2022-11-20T01:34:36;7.70;99.90
2453;DHT22;63678;47.994;7.854;2022-11-20T01:37:08;7.70;99.90
2453;DHT22;63678;47.994;7.854;2022-11-20T01:39:40;7.70;99.90
2453;DHT22;63678;47.994;7.854;2022-11-20T01:48:47;7.70;99.90
2453;DHT22;63678;47.994;7.854;2022-11-20T01:51:43;7.70;99.90
2453;DHT22;63678;47.994;7.854;2022-11-20T01:54:38;7.60;99.90
2453;DHT22;63678;47.994;7.854;2022-11-20T01:57:14;7.70;99.90
2453;DHT22;63678;47.994;7.854;2022-11-20T01:59:59;7.70;99.90
2453;DHT22;63678;47.994;7.854;2022-11-20T02:02:46;7.70;99.90
2453;DHT22;63678;47.994;7.854;2022-11-20T02:11:00;7.80;99.90
2453;DHT22;63678;47.994;7.854;2022-11-20T02:13:33;7.80;99.90
2453;DHT22;63678;47.994;7.854;2022-11-20T02:16:30;7.80;99.90
2453;DHT22;63678;47.994;7.854;2022-11-20T02:19:07;7.80;99.90
2453;DHT22;63678;47.994;7.854;2022-11-20T02:21:58;7.80;99.90
2453;DHT22;63678;47.994;7.854;2022-11-20T02:24:33;7.80;99.90
2453;DHT22;63678;47.994;7.854;2022-11-20T02:27:10;7.80;99.90
2453;DHT22;63678;47.994;7.854;2022-11-20T02:29:57;7.60;99.90
2453;DHT22;63678;47.994;7.854;2022-11-20T02:32:35;7.80;99.90
2453;DHT22;63678;47.994;7.854;2022-11-20T02:38:02;7.80;99.90
2453;DHT22;63678;47.994;7.854;2022-11-20T02:40:34;7.80;99.90
2453;DHT22;63678;47.994;7.854;2022-11-20T02:43:07;7.90;99.90
2453;DHT22;63678;47.994;7.854;2022-11-20T02:45:40;7.80;99.90
2453;DHT22;63678;47.994;7.854;2022-11-20T02:53:19;7.80;99.90
2453;DHT22;63678;47.994;7.854;2022-11-20T02:55:51;7.80;99.90
2453;DHT22;63678;47.994;7.854;2022-11-20T03:00:56;7.80;99.90
2453;DHT22;63678;47.994;7.854;2022-11-20T03:03:29;7.80;99.90
2453;DHT22;63678;47.994;7.854;2022-11-20T03:06:01;7.80;99.90
2453;DHT22;63678;47.994;7.854;2022-11-20T03:08:34;7.70;99.90
2453;DHT22;63678;47.994;7.854;2022-11-20T03:11:07;7.80;99.90
2453;DHT22;63678;47.994;7.854;2022-11-20T03:13:40;7.80;99.90
2453;DHT22;63678;47.994;7.854;2022-11-20T03:16:17;7.80;99.90
2453;DHT22;63678;47.994;7.854;2022-11-20T03:18:52;7.80;99.90
2453;DHT22;63678;47.994;7.854;2022-11-20T03:21:25;7.80;99.90
2453;DHT22;63678;47.994;7.854;2022-11-20T03:23:58;7.80;99.90
2453;DHT22;63678;47.994;7.854;2022-11-20T03:26:30;7.80;99.90
2453;DHT22;63678;47.994;7.854;2022-11-20T03:29:04;7.70;99.90
2453;DHT22;63678;47.994;7.854;2022-11-20T03:31:39;7.70;99.90
2453;DHT22;63678;47.994;7.854;2022-11-20T03:34:12;7.70;99.90
2453;DHT22;63678;47.994;7.854;2022-11-20T03:36:45;7.70;99.90
2453;DHT22;63678;47.994;7.854;2022-11-20T03:39:17;7.70;99.90
2453;DHT22;63678;47.994;7.854;2022-11-20T03:41:49;7.80;99.90
2453;DHT22;63678;47.994;7.854;2022-11-20T03:44:22;7.70;99.90
2453;DHT22;63678;47.994;7.854;2022-11-20T03:46:54;7.80;99.90
2453;DHT22;63678;47.994;7.854;2022-11-20T03:49:26;7.80;99.90
2453;DHT22;63678;47.994;7.854;2022-11-20T03:51:58;7.80;99.90
2453;DHT22;63678;47.994;7.854;2022-11-20T03:59:36;7.80;99.90
2453;DHT22;63678;47.994;7.854;2022-11-20T04:02:08;7.80;99.90
2453;DHT22;63678;47.994;7.854;2022-11-20T04:07:13;7.80;99.90
2453;DHT22;63678;47.994;7.854;2022-11-20T04:09:46;7.80;99.90
2453;DHT22;63678;47.994;7.854;2022-11-20T04:19:56;7.70;99.90
2453;DHT22;63678;47.994;7.854;2022-11-20T04:22:29;7.80;99.90
2453;DHT22;63678;47.994;7.854;2022-11-20T04:25:01;7.80;99.90
2453;DHT22;63678;47.994;7.854;2022-11-20T04:27:34;7.90;99.90
2453;DHT22;63678;47.994;7.854;2022-11-20T04:35:12;7.90;99.90
2453;DHT22;63678;47.994;7.854;2022-11-20T04:37:45;7.80;99.90
2453;DHT22;63678;47.994;7.854;2022-11-20T04:40:17;7.80;99.90
2453;DHT22;63678;47.994;7.854;2022-11-20T04:45:23;7.80;99.90
2453;DHT22;63678;47.994;7.854;2022-11-20T04:53:22;7.70;99.90
2453;DHT22;63678;47.994;7.854;2022-11-20T04:56:03;7.70;99.90
2453;DHT22;63678;47.994;7.854;2022-11-20T05:03:45;7.70;99.90
2453;DHT22;63678;47.994;7.854;2022-11-20T05:06:21;7.70;99.90
2453;DHT22;63678;47.994;7.854;2022-11-20T05:08:54;7.70;99.90
2453;DHT22;63678;47.994;7.854;2022-11-20T05:14:01;7.70;99.90
2453;DHT22;63678;47.994;7.854;2022-11-20T05:16:34;7.70;99.90
2453;DHT22;63678;47.994;7.854;2022-11-20T05:19:08;7.80;99.90
2453;DHT22;63678;47.994;7.854;2022-11-20T05:24:13;7.60;99.90
2453;DHT22;63678;47.994;7.854;2022-11-20T05:29:18;7.70;99.90
2453;DHT22;63678;47.994;7.854;2022-11-20T05:31:51;7.70;99.90
2453;DHT22;63678;47.994;7.854;2022-11-20T05:36:56;7.70;99.90
2453;DHT22;63678;47.994;7.854;2022-11-20T05:39:28;7.70;99.90
2453;DHT22;63678;47.994;7.854;2022-11-20T05:42:01;7.70;99.90
2453;DHT22;63678;47.994;7.854;2022-11-20T05:44:51;7.70;99.90
2453;DHT22;63678;47.994;7.854;2022-11-20T05:47:26;7.60;99.90
2453;DHT22;63678;47.994;7.854;2022-11-20T05:50:00;7.70;99.90
2453;DHT22;63678;47.994;7.854;2022-11-20T05:55:06;7.60;99.90
2453;DHT22;63678;47.994;7.854;2022-11-20T05:57:38;7.60;99.90
2453;DHT22;63678;47.994;7.854;2022-11-20T06:00:11;7.60;99.90
2453;DHT22;63678;47.994;7.854;2022-11-20T06:02:44;7.60;99.90
2453;DHT22;63678;47.994;7.854;2022-11-20T06:05:16;7.60;99.90
2453;DHT22;63678;47.994;7.854;2022-11-20T06:07:49;7.70;99.90
2453;DHT22;63678;47.994;7.854;2022-11-20T06:12:57;7.70;99.90
2453;DHT22;63678;47.994;7.854;2022-11-20T06:15:30;7.70;99.90
2453;DHT22;63678;47.994;7.854;2022-11-20T06:18:02;7.80;99.90
2453;DHT22;63678;47.994;7.854;2022-11-20T06:20:35;7.80;99.90
2453;DHT22;63678;47.994;7.854;2022-11-20T06:23:13;7.70;99.90
2453;DHT22;63678;47.994;7.854;2022-11-20T06:25:45;7.70;99.90
2453;DHT22;63678;47.994;7.854;2022-11-20T06:28:17;7.70;99.90
2453;DHT22;63678;47.994;7.854;2022-11-20T06:30:50;7.70;99.90
2453;DHT22;63678;47.994;7.854;2022-11-20T06:33:22;7.60;99.90
2453;DHT22;63678;47.994;7.854;2022-11-20T06:35:58;7.60;99.90
2453;DHT22;63678;47.994;7.854;2022-11-20T06:38:38;7.60;99.90
2453;DHT22;63678;47.994;7.854;2022-11-20T06:41:17;7.60;99.90
2453;DHT22;63678;47.994;7.854;2022-11-20T06:43:51;7.60;99.90
2453;DHT22;63678;47.994;7.854;2022-11-20T06:46:24;7.60;99.90
2453;DHT22;63678;47.994;7.854;2022-11-20T06:48:56;7.60;99.90
2453;DHT22;63678;47.994;7.854;2022-11-20T06:54:04;7.70;99.90
2453;DHT22;63678;47.994;7.854;2022-11-20T06:56:37;7.60;99.90
2453;DHT22;63678;47.994;7.854;2022-11-20T06:59:09;7.60;99.90
2453;DHT22;63678;47.994;7.854;2022-11-20T07:04:14;7.60;99.90
2453;DHT22;63678;47.994;7.854;2022-11-20T07:06:47;7.60;99.90
2453;DHT22;63678;47.994;7.854;2022-11-20T07:11:53;7.60;99.90
2453;DHT22;63678;47.994;7.854;2022-11-20T07:14:25;7.70;99.90
2453;DHT22;63678;47.994;7.854;2022-11-20T07:16:57;7.70;99.90
2453;DHT22;63678;47.994;7.854;2022-11-20T07:19:30;7.70;99.90
2453;DHT22;63678;47.994;7.854;2022-11-20T07:22:02;7.70;99.90
2453;DHT22;63678;47.994;7.854;2022-11-20T07:24:35;7.70;99.90
2453;DHT22;63678;47.994;7.854;2022-11-20T07:27:07;7.70;99.90
2453;DHT22;63678;47.994;7.854;2022-11-20T07:29:39;7.70;99.90
2453;DHT22;63678;47.994;7.854;2022-11-20T07:32:12;7.70;99.90
2453;DHT22;63678;47.994;7.854;2022-11-20T07:34:44;7.70;99.90
2453;DHT22;63678;47.994;7.854;2022-11-20T07:37:17;7.80;99.90
2453;DHT22;63678;47.994;7.854;2022-11-20T07:39:50;7.80;99.90
2453;DHT22;63678;47.994;7.854;2022-11-20T07:42:22;7.80;99.90
2453;DHT22;63678;47.994;7.854;2022-11-20T07:44:55;7.80;99.90
2453;DHT22;63678;47.994;7.854;2022-11-20T07:47:27;7.90;99.90
2453;DHT22;63678;47.994;7.854;2022-11-20T07:49:59;7.90;99.90
2453;DHT22;63678;47.994;7.854;2022-11-20T07:55:05;7.90;99.90
2453;DHT22;63678;47.994;7.854;2022-11-20T07:57:38;7.80;99.90
2453;DHT22;63678;47.994;7.854;2022-11-20T08:00:11;7.80;99.90
2453;DHT22;63678;47.994;7.854;2022-11-20T08:02:44;7.70;99.90
2453;DHT22;63678;47.994;7.854;2022-11-20T08:07:50;7.60;99.90
2453;DHT22;63678;47.994;7.854;2022-11-20T08:10:26;7.60;99.90
2453;DHT22;63678;47.994;7.854;2022-11-20T08:15:50;7.50;99.90
2453;DHT22;63678;47.994;7.854;2022-11-20T08:18:22;7.60;99.90
2453;DHT22;63678;47.994;7.854;2022-11-20T08:21:04;7.50;99.90
2453;DHT22;63678;47.994;7.854;2022-11-20T08:23:36;7.60;99.90
2453;DHT22;63678;47.994;7.854;2022-11-20T08:26:09;7.60;99.90
2453;DHT22;63678;47.994;7.854;2022-11-20T08:28:41;7.60;99.90
2453;DHT22;63678;47.994;7.854;2022-11-20T08:36:20;7.70;99.90
2453;DHT22;63678;47.994;7.854;2022-11-20T08:38:54;7.70;99.90
2453;DHT22;63678;47.994;7.854;2022-11-20T08:41:29;7.70;99.90
2453;DHT22;63678;47.994;7.854;2022-11-20T08:44:06;7.70;99.90
2453;DHT22;63678;47.994;7.854;2022-11-20T08:46:40;7.70;99.90
2453;DHT22;63678;47.994;7.854;2022-11-20T08:49:14;7.70;99.90
2453;DHT22;63678;47.994;7.854;2022-11-20T08:51:46;7.70;99.90
2453;DHT22;63678;47.994;7.854;2022-11-20T08:54:23;7.80;99.90
2453;DHT22;63678;47.994;7.854;2022-11-20T08:56:55;7.80;99.90
2453;DHT22;63678;47.994;7.854;2022-11-20T08:59:28;7.80;99.90
2453;DHT22;63678;47.994;7.854;2022-11-20T09:02:20;7.80;99.90
2453;DHT22;63678;47.994;7.854;2022-11-20T09:04:52;7.80;99.90
2453;DHT22;63678;47.994;7.854;2022-11-20T09:07:28;7.90;99.90
2453;DHT22;63678;47.994;7.854;2022-11-20T09:10:01;7.80;99.90
2453;DHT22;63678;47.994;7.854;2022-11-20T09:12:56;7.80;99.90
2453;DHT22;63678;47.994;7.854;2022-11-20T09:18:02;7.80;99.90
2453;DHT22;63678;47.994;7.854;2022-11-20T09:20:36;7.80;99.90
2453;DHT22;63678;47.994;7.854;2022-11-20T09:23:08;7.80;99.90
2453;DHT22;63678;47.994;7.854;2022-11-20T09:25:41;7.80;99.90
2453;DHT22;63678;47.994;7.854;2022-11-20T09:28:14;7.80;99.90
2453;DHT22;63678;47.994;7.854;2022-11-20T09:33:19;7.80;99.90
2453;DHT22;63678;47.994;7.854;2022-11-20T09:35:51;7.80;99.90
2453;DHT22;63678;47.994;7.854;2022-11-20T09:38:23;7.90;99.90
2453;DHT22;63678;47.994;7.854;2022-11-20T09:40:58;7.90;99.90
2453;DHT22;63678;47.994;7.854;2022-11-20T09:47:27;7.90;99.90
2453;DHT22;63678;47.994;7.854;2022-11-20T09:53:28;8.00;99.90
2453;DHT22;63678;47.994;7.854;2022-11-20T09:56:23;8.10;99.90
2453;DHT22;63678;47.994;7.854;2022-11-20T09:58:59;8.00;99.90
2453;DHT22;63678;47.994;7.854;2022-11-20T10:01:36;8.10;99.90
2453;DHT22;63678;47.994;7.854;2022-11-20T10:04:17;8.10;99.90
2453;DHT22;63678;47.994;7.854;2022-11-20T10:09:53;8.10;99.90
2453;DHT22;63678;47.994;7.854;2022-11-20T10:21:51;8.20;99.90
2453;DHT22;63678;47.994;7.854;2022-11-20T10:24:56;8.20;99.90
2453;DHT22;63678;47.994;7.854;2022-11-20T10:30:39;8.10;99.90
2453;DHT22;63678;47.994;7.854;2022-11-20T10:33:13;8.10;99.90
2453;DHT22;63678;47.994;7.854;2022-11-20T10:36:05;8.10;99.90
2453;DHT22;63678;47.994;7.854;2022-11-20T10:38:44;8.20;99.90
2453;DHT22;63678;47.994;7.854;2022-11-20T10:41:29;8.20;99.90
2453;DHT22;63678;47.994;7.854;2022-11-20T10:44:26;8.30;99.90
2453;DHT22;63678;47.994;7.854;2022-11-20T10:47:18;8.40;99.90
2453;DHT22;63678;47.994;7.854;2022-11-20T10:49:52;7.10;99.90
2453;DHT22;63678;47.994;7.854;2022-11-20T10:52:32;8.40;99.90
2453;DHT22;63678;47.994;7.854;2022-11-20T10:55:27;8.40;99.90
2453;DHT22;63678;47.994;7.854;2022-11-20T10:58:17;8.40;99.90
2453;DHT22;63678;47.994;7.854;2022-11-20T11:00:52;8.40;99.90
2453;DHT22;63678;47.994;7.854;2022-11-20T11:03:35;8.40;99.90
2453;DHT22;63678;47.994;7.854;2022-11-20T11:09:24;8.50;99.90
2453;DHT22;63678;47.994;7.854;2022-11-20T11:12:10;8.50;99.90
2453;DHT22;63678;47.994;7.854;2022-11-20T11:17:31;8.70;99.90
2453;DHT22;63678;47.994;7.854;2022-11-20T11:20:14;8.80;99.90
2453;DHT22;63678;47.994;7.854;2022-11-20T11:22:54;8.90;99.90
2453;DHT22;63678;47.994;7.854;2022-11-20T11:25:31;8.80;99.90
2453;DHT22;63678;47.994;7.854;2022-11-20T11:30:48;8.90;99.90
2453;DHT22;63678;47.994;7.854;2022-11-20T11:36:01;9.60;99.90
2453;DHT22;63678;47.994;7.854;2022-11-20T11:38:41;9.60;99.90
2453;DHT22;63678;47.994;7.854;2022-11-20T11:41:22;9.40;99.90
2453;DHT22;63678;47.994;7.854;2022-11-20T11:43:58;9.40;99.90
2453;DHT22;63678;47.994;7.854;2022-11-20T11:46:54;9.90;99.90
2453;DHT22;63678;47.994;7.854;2022-11-20T11:52:05;9.80;99.90
2453;DHT22;63678;47.994;7.854;2022-11-20T11:54:53;10.00;99.90
2453;DHT22;63678;47.994;7.854;2022-11-20T11:57:53;10.00;99.90
2453;DHT22;63678;47.994;7.854;2022-11-20T12:05:54;10.50;99.90
2453;DHT22;63678;47.994;7.854;2022-11-20T12:11:44;10.10;99.90
2453;DHT22;63678;47.994;7.854;2022-11-20T12:14:34;10.00;99.90
2453;DHT22;63678;47.994;7.854;2022-11-20T12:17:11;9.90;99.90
2453;DHT22;63678;47.994;7.854;2022-11-20T12:19:44;10.30;99.90
2453;DHT22;63678;47.994;7.854;2022-11-20T12:23:02;10.50;99.90
2453;DHT22;63678;47.994;7.854;2022-11-20T12:25:44;10.70;99.90
2453;DHT22;63678;47.994;7.854;2022-11-20T12:28:44;10.60;99.90
2453;DHT22;63678;47.994;7.854;2022-11-20T12:48:03;9.10;99.90
2453;DHT22;63678;47.994;7.854;2022-11-20T12:51:51;9.20;99.90
2453;DHT22;63678;47.994;7.854;2022-11-20T13:00:07;9.10;99.90
2453;DHT22;63678;47.994;7.854;2022-11-20T13:08:55;9.20;99.90
2453;DHT22;63678;47.994;7.854;2022-11-20T13:17:34;9.20;99.90
2453;DHT22;63678;47.994;7.854;2022-11-20T13:20:16;9.30;99.90
2453;DHT22;63678;47.994;7.854;2022-11-20T13:22:53;9.50;99.90
2453;DHT22;63678;47.994;7.854;2022-11-20T13:25:29;9.40;99.90
2453;DHT22;63678;47.994;7.854;2022-11-20T13:28:28;9.40;99.90
2453;DHT22;63678;47.994;7.854;2022-11-20T13:31:02;9.40;99.90
2453;DHT22;63678;47.994;7.854;2022-11-20T13:33:36;9.40;99.90
2453;DHT22;63678;47.994;7.854;2022-11-20T13:36:24;9.40;99.90
2453;DHT22;63678;47.994;7.854;2022-11-20T13:41:36;9.40;99.90
2453;DHT22;63678;47.994;7.854;2022-11-20T13:44:22;9.40;99.90
2453;DHT22;63678;47.994;7.854;2022-11-20T13:46:57;9.40;99.90
2453;DHT22;63678;47.994;7.854;2022-11-20T13:49:37;9.50;99.90
2453;DHT22;63678;47.994;7.854;2022-11-20T14:01:15;9.30;99.90
2453;DHT22;63678;47.994;7.854;2022-11-20T14:04:15;9.20;99.90
2453;DHT22;63678;47.994;7.854;2022-11-20T14:06:51;9.20;99.90
2453;DHT22;63678;47.994;7.854;2022-11-20T14:09:33;9.10;99.90
2453;DHT22;63678;47.994;7.854;2022-11-20T14:12:16;9.10;99.90
2453;DHT22;63678;47.994;7.854;2022-11-20T14:14:53;9.00;99.90
2453;DHT22;63678;47.994;7.854;2022-11-20T14:17:33;9.00;99.90
2453;DHT22;63678;47.994;7.854;2022-11-20T14:20:12;9.00;99.90
2453;DHT22;63678;47.994;7.854;2022-11-20T14:22:50;9.00;99.90
2453;DHT22;63678;47.994;7.854;2022-11-20T14:25:26;7.90;99.90
2453;DHT22;63678;47.994;7.854;2022-11-20T14:28:03;9.00;99.90
2453;DHT22;63678;47.994;7.854;2022-11-20T14:30:43;9.10;99.90
2453;DHT22;63678;47.994;7.854;2022-11-20T14:33:17;9.10;99.90
2453;DHT22;63678;47.994;7.854;2022-11-20T14:35:53;9.10;99.90
2453;DHT22;63678;47.994;7.854;2022-11-20T14:38:28;8.90;99.90
2453;DHT22;63678;47.994;7.854;2022-11-20T14:41:17;8.90;99.90
2453;DHT22;63678;47.994;7.854;2022-11-20T14:43:56;8.90;99.90
2453;DHT22;63678;47.994;7.854;2022-11-20T14:46:30;9.00;99.90
2453;DHT22;63678;47.994;7.854;2022-11-20T14:49:03;9.00;99.90
2453;DHT22;63678;47.994;7.854;2022-11-20T14:51:40;8.90;99.90
2453;DHT22;63678;47.994;7.854;2022-11-20T14:54:18;8.90;99.90
2453;DHT22;63678;47.994;7.854;2022-11-20T14:56:56;8.80;99.90
2453;DHT22;63678;47.994;7.854;2022-11-20T14:59:34;8.90;99.90
2453;DHT22;63678;47.994;7.854;2022-11-20T15:02:11;8.80;99.90
2453;DHT22;63678;47.994;7.854;2022-11-20T15:04:51;8.80;99.90
2453;DHT22;63678;47.994;7.854;2022-11-20T15:07:33;8.80;99.90
2453;DHT22;63678;47.994;7.854;2022-11-20T15:13:01;8.90;99.90
2453;DHT22;63678;47.994;7.854;2022-11-20T15:15:47;8.90;99.90
2453;DHT22;63678;47.994;7.854;2022-11-20T15:18:40;9.00;99.90
2453;DHT22;63678;47.994;7.854;2022-11-20T15:21:18;8.80;99.90
2453;DHT22;63678;47.994;7.854;2022-11-20T15:26:26;8.90;99.90
2453;DHT22;63678;47.994;7.854;2022-11-20T15:29:00;8.90;99.90
2453;DHT22;63678;47.994;7.854;2022-11-20T15:31:32;8.90;99.90
2453;DHT22;63678;47.994;7.854;2022-11-20T15:34:07;8.80;99.90
2453;DHT22;63678;47.994;7.854;2022-11-20T15:36:43;8.80;99.90
2453;DHT22;63678;47.994;7.854;2022-11-20T15:39:16;8.80;99.90
2453;DHT22;63678;47.994;7.854;2022-11-20T15:44:22;8.80;99.90
2453;DHT22;63678;47.994;7.854;2022-11-20T15:46:55;8.80;99.90
2453;DHT22;63678;47.994;7.854;2022-11-20T15:52:00;8.90;99.90
2453;DHT22;63678;47.994;7.854;2022-11-20T15:54:32;8.90;99.90
2453;DHT22;63678;47.994;7.854;2022-11-20T15:57:05;8.90;99.90
2453;DHT22;63678;47.994;7.854;2022-11-20T15:59:38;8.90;99.90
2453;DHT22;63678;47.994;7.854;2022-11-20T16:02:14;8.90;99.90
2453;DHT22;63678;47.994;7.854;2022-11-20T16:07:23;8.90;99.90
2453;DHT22;63678;47.994;7.854;2022-11-20T16:09:55;8.90;99.90
2453;DHT22;63678;47.994;7.854;2022-11-20T16:12:28;8.90;99.90
2453;DHT22;63678;47.994;7.854;2022-11-20T16:15:19;8.90;99.90
2453;DHT22;63678;47.994;7.854;2022-11-20T16:18:11;8.90;99.90
2453;DHT22;63678;47.994;7.854;2022-11-20T16:20:47;8.90;99.90
2453;DHT22;63678;47.994;7.854;2022-11-20T16:23:21;8.90;99.90
2453;DHT22;63678;47.994;7.854;2022-11-20T16:25:53;8.70;99.90
2453;DHT22;63678;47.994;7.854;2022-11-20T16:28:25;8.90;99.90
2453;DHT22;63678;47.994;7.854;2022-11-20T16:31:08;8.90;99.90
2453;DHT22;63678;47.994;7.854;2022-11-20T16:33:53;8.90;99.90
2453;DHT22;63678;47.994;7.854;2022-11-20T16:36:28;8.90;99.90
2453;DHT22;63678;47.994;7.854;2022-11-20T16:39:02;8.90;99.90
2453;DHT22;63678;47.994;7.854;2022-11-20T16:41:35;8.90;99.90
2453;DHT22;63678;47.994;7.854;2022-11-20T16:44:09;8.90;99.90
2453;DHT22;63678;47.994;7.854;2022-11-20T16:46:42;8.90;99.90
2453;DHT22;63678;47.994;7.854;2022-11-20T16:49:14;8.90;99.90
2453;DHT22;63678;47.994;7.854;2022-11-20T16:59:26;8.80;99.90
2453;DHT22;63678;47.994;7.854;2022-11-20T17:01:58;8.80;99.90
2453;DHT22;63678;47.994;7.854;2022-11-20T17:04:30;8.70;99.90
2453;DHT22;63678;47.994;7.854;2022-11-20T17:07:03;8.80;99.90
2453;DHT22;63678;47.994;7.854;2022-11-20T17:12:12;8.60;99.90
2453;DHT22;63678;47.994;7.854;2022-11-20T17:19:50;8.80;99.90
2453;DHT22;63678;47.994;7.854;2022-11-20T17:24:56;8.80;99.90
2453;DHT22;63678;47.994;7.854;2022-11-20T17:27:28;8.80;99.90
2453;DHT22;63678;47.994;7.854;2022-11-20T17:30:01;8.80;99.90
2453;DHT22;63678;47.994;7.854;2022-11-20T17:32:33;8.60;99.90
2453;DHT22;63678;47.994;7.854;2022-11-20T17:35:06;8.70;99.90
2453;DHT22;63678;47.994;7.854;2022-11-20T17:40:12;8.70;99.90
2453;DHT22;63678;47.994;7.854;2022-11-20T17:42:45;8.80;99.90
2453;DHT22;63678;47.994;7.854;2022-11-20T17:45:17;8.80;99.90
2453;DHT22;63678;47.994;7.854;2022-11-20T17:47:49;8.70;99.90
2453;DHT22;63678;47.994;7.854;2022-11-20T17:50:22;8.80;99.90
2453;DHT22;63678;47.994;7.854;2022-11-20T17:52:54;8.80;99.90
2453;DHT22;63678;47.994;7.854;2022-11-20T17:55:26;8.80;99.90
2453;DHT22;63678;47.994;7.854;2022-11-20T17:58:27;8.70;99.90
2453;DHT22;63678;47.994;7.854;2022-11-20T18:01:06;8.60;99.90
2453;DHT22;63678;47.994;7.854;2022-11-20T18:03:39;8.50;99.90
2453;DHT22;63678;47.994;7.854;2022-11-20T18:06:16;8.40;99.90
2453;DHT22;63678;47.994;7.854;2022-11-20T18:08:50;7.90;99.90
2453;DHT22;63678;47.994;7.854;2022-11-20T18:11:25;7.40;99.90
2453;DHT22;63678;47.994;7.854;2022-11-20T18:14:00;7.20;99.90
2453;DHT22;63678;47.994;7.854;2022-11-20T18:16:59;6.90;99.90
2453;DHT22;63678;47.994;7.854;2022-11-20T18:19:35;6.70;99.90
2453;DHT22;63678;47.994;7.854;2022-11-20T18:22:22;6.50;99.90
2453;DHT22;63678;47.994;7.854;2022-11-20T18:24:54;6.40;99.90
2453;DHT22;63678;47.994;7.854;2022-11-20T18:32:36;6.40;99.90
2453;DHT22;63678;47.994;7.854;2022-11-20T18:35:08;6.40;99.90
2453;DHT22;63678;47.994;7.854;2022-11-20T18:37:41;6.40;99.90
2453;DHT22;63678;47.994;7.854;2022-11-20T18:45:41;6.40;99.90
2453;DHT22;63678;47.994;7.854;2022-11-20T18:48:13;6.30;99.90
2453;DHT22;63678;47.994;7.854;2022-11-20T18:53:18;6.20;99.90
2453;DHT22;63678;47.994;7.854;2022-11-20T18:55:52;6.30;99.90
2453;DHT22;63678;47.994;7.854;2022-11-20T18:58:27;6.40;99.90
2453;DHT22;63678;47.994;7.854;2022-11-20T19:01:07;6.30;99.90
2453;DHT22;63678;47.994;7.854;2022-11-20T19:03:39;6.30;99.90
2453;DHT22;63678;47.994;7.854;2022-11-20T19:06:12;6.30;99.90
2453;DHT22;63678;47.994;7.854;2022-11-20T19:08:45;6.30;99.90
2453;DHT22;63678;47.994;7.854;2022-11-20T19:11:18;6.30;99.90
2453;DHT22;63678;47.994;7.854;2022-11-20T19:13:50;6.40;99.90
2453;DHT22;63678;47.994;7.854;2022-11-20T19:16:23;6.40;99.90
2453;DHT22;63678;47.994;7.854;2022-11-20T19:18:57;6.40;99.90
2453;DHT22;63678;47.994;7.854;2022-11-20T19:21:35;6.40;99.90
2453;DHT22;63678;47.994;7.854;2022-11-20T19:24:07;6.30;99.90
2453;DHT22;63678;47.994;7.854;2022-11-20T19:29:14;6.30;99.90
2453;DHT22;63678;47.994;7.854;2022-11-20T19:31:47;6.30;99.90
2453;DHT22;63678;47.994;7.854;2022-11-20T19:34:19;6.30;99.90
2453;DHT22;63678;47.994;7.854;2022-11-20T19:39:25;6.40;99.90
2453;DHT22;63678;47.994;7.854;2022-11-20T19:41:59;6.50;99.90
2453;DHT22;63678;47.994;7.854;2022-11-20T19:47:04;6.60;99.90
2453;DHT22;63678;47.994;7.854;2022-11-20T19:49:44;6.60;99.90
2453;DHT22;63678;47.994;7.854;2022-11-20T19:52:17;6.50;99.90
2453;DHT22;63678;47.994;7.854;2022-11-20T19:59:55;6.60;99.90
2453;DHT22;63678;47.994;7.854;2022-11-20T20:02:27;6.50;99.90
2453;DHT22;63678;47.994;7.854;2022-11-20T20:05:00;6.50;99.90
2453;DHT22;63678;47.994;7.854;2022-11-20T20:10:05;6.60;99.90
2453;DHT22;63678;47.994;7.854;2022-11-20T20:12:38;6.60;99.90
2453;DHT22;63678;47.994;7.854;2022-11-20T20:15:10;6.60;99.90
2453;DHT22;63678;47.994;7.854;2022-11-20T20:22:48;6.50;99.90
2453;DHT22;63678;47.994;7.854;2022-11-20T20:33:02;6.40;99.90
2453;DHT22;63678;47.994;7.854;2022-11-20T20:35:39;6.40;99.90
2453;DHT22;63678;47.994;7.854;2022-11-20T20:40:49;6.50;99.90
2453;DHT22;63678;47.994;7.854;2022-11-20T21:01:19;6.40;99.90
2453;DHT22;63678;47.994;7.854;2022-11-20T21:03:52;6.40;99.90
2453;DHT22;63678;47.994;7.854;2022-11-20T21:08:59;6.40;99.90
2453;DHT22;63678;47.994;7.854;2022-11-20T21:24:34;6.70;99.90
2453;DHT22;63678;47.994;7.854;2022-11-20T21:27:07;6.70;99.90
2453;DHT22;63678;47.994;7.854;2022-11-20T21:29:40;6.70;99.90
2453;DHT22;63678;47.994;7.854;2022-11-20T21:39:51;6.70;99.90
2453;DHT22;63678;47.994;7.854;2022-11-20T21:44:57;6.70;99.90
2453;DHT22;63678;47.994;7.854;2022-11-20T21:50:03;6.70;99.90
2453;DHT22;63678;47.994;7.854;2022-11-20T21:52:36;6.70;99.90
2453;DHT22;63678;47.994;7.854;2022-11-20T21:55:08;6.70;99.90
2453;DHT22;63678;47.994;7.854;2022-11-20T21:57:41;6.80;99.90
2453;DHT22;63678;47.994;7.854;2022-11-20T22:05:52;6.90;99.90
2453;DHT22;63678;47.994;7.854;2022-11-20T22:11:08;7.00;99.90
2453;DHT22;63678;47.994;7.854;2022-11-20T22:13:43;7.00;99.90
2453;DHT22;63678;47.994;7.854;2022-11-20T22:16:35;7.10;99.90
2453;DHT22;63678;47.994;7.854;2022-11-20T22:19:08;7.20;99.90
2453;DHT22;63678;47.994;7.854;2022-11-20T22:21:41;7.20;99.90
2453;DHT22;63678;47.994;7.854;2022-11-20T22:24:17;7.20;99.90
2453;DHT22;63678;47.994;7.854;2022-11-20T22:26:54;7.30;99.90
2453;DHT22;63678;47.994;7.854;2022-11-20T22:29:27;7.40;99.90
2453;DHT22;63678;47.994;7.854;2022-11-20T22:37:05;7.30;99.90
2453;DHT22;63678;47.994;7.854;2022-11-20T22:47:15;7.20;99.90
2453;DHT22;63678;47.994;7.854;2022-11-20T22:54:52;7.10;99.90
2453;DHT22;63678;47.994;7.854;2022-11-20T22:57:24;7.10;99.90
2453;DHT22;63678;47.994;7.854;2022-11-20T23:02:29;7.10;99.90
2453;DHT22;63678;47.994;7.854;2022-11-20T23:12:44;7.20;99.90
2453;DHT22;63678;47.994;7.854;2022-11-20T23:25:28;7.20;99.90
2453;DHT22;63678;47.994;7.854;2022-11-20T23:28:00;7.20;99.90
2453;DHT22;63678;47.994;7.854;2022-11-20T23:30:33;7.20;99.90